Kansas City, Missouri
Traffic Map
Current Weather Conditions
Kansas City, Missouri
Overcast
Overcast
73°
Feels Like: 73°
Wind Chill: 73° Ceiling: 700
Heat Index: 73° Visibility: 10mi
Dew Point: 71° Wind: 0mph
Humidity: 93% Direction: ° ()
Pressure: 29.86in Gusts: 0mph
Raw Report DataKMKC 070241Z 00000KT 10SM BKN007 OVC075 23/22 A2986 RMK AO2 CIG 005V009 T02280217 $
Traffic Incident Summary
Active as of:
Severity:
Category:
InformationThere was an issue retrieving the traffic information for this location. Please try a different location or try again shortly.
Advertisements
Track Severe Weather on mobile